METAR Data
IDs: Format: Raw Decoded Include TAF

Data at: 0833 UTC 03 Aug 2021

KUKI 030756Z AUTO 00000KT 10SM CLR 18/10 A3002 RMK AO2 SLP160 T01830100 403440117
KUKI 030656Z AUTO 00000KT 10SM CLR 19/10 A3002 RMK AO2 SLP159 T01940100
KUKI 030556Z AUTO 00000KT 10SM CLR 22/11 A3003 RMK AO2 SLP160 T02170106 10344 20211 51009
KUKI 030456Z AUTO 00000KT 10SM CLR 23/11 A3002 RMK AO2 SLP160 T02330106
KUKI 030356Z AUTO 36005KT 10SM CLR 25/11 A3001 RMK AO2 SLP156 T02500106
KUKI 030256Z AUTO 01006KT 10SM CLR 28/11 A3000 RMK AO2 SLP152 T02780111 55001
KUKI 030156Z AUTO 02007KT 10SM CLR 32/11 A2999 RMK AO2 SLP147 T03220106
KUKI 030056Z AUTO 12004KT 10SM CLR 34/02 A2999 RMK AO2 SLP148 T03390017
KUKI 022356Z AUTO VRB04KT 10SM CLR 33/02 A3000 RMK AO2 SLP151 T03330022 10344 20200 56012
KUKI 022256Z AUTO 13007KT 10SM CLR 34/03 A3001 RMK AO2 SLP154 T03390028
KUKI 022156Z AUTO 14007KT 10SM CLR 32/04 A3002 RMK AO2 SLP160 T03170039
KUKI 022056Z AUTO 13008KT 10SM CLR 32/07 A3004 RMK AO2 SLP164 T03170067 58021
KUKI 021956Z AUTO VRB05KT 10SM CLR 28/08 A3006 RMK AO2 SLP172 T02830078
KUKI 021856Z AUTO 08004KT 10SM CLR 24/09 A3008 RMK AO2 SLP179 T02390089
KUKI 021756Z AUTO 14006KT 10SM CLR 21/11 A3010 RMK AO2 SLP187 T02060106 10206 20117 58008
KUKI 021656Z AUTO 00000KT 10SM CLR 17/11 A3011 RMK AO2 SLP190 T01670106
KUKI 021610Z AUTO 09004KT 10SM SCT012 16/10 A3013 RMK AO2 T01560100
KUKI 021556Z AUTO VRB04KT 10SM BKN012 14/10 A3013 RMK AO2 SLP196 T01440100
KUKI 021515Z AUTO 19003KT 10SM OVC010 14/10 A3013 RMK AO2 T01390100
KUKI 021456Z AUTO 18004KT 10SM OVC009 13/10 A3013 RMK AO2 SLP195 T01330100 52016
KUKI 021422Z AUTO 00000KT 10SM BKN008 12/10 A3012 RMK AO2 T01220100
KUKI 021405Z AUTO 17003KT 10SM FEW008 12/09 A3012 RMK AO2 T01220094
KUKI 021356Z AUTO 16003KT 10SM CLR 12/09 A3011 RMK AO2 SLP189 T01220094
KUKI 021256Z AUTO 18005KT 10SM CLR 12/09 A3009 RMK AO2 SLP183 T01220094
KUKI 021156Z AUTO 17004KT 10SM CLR 12/10 A3008 RMK AO2 SLP177 T01220100 10189 20122 53003
KUKI 021056Z AUTO 18006KT 10SM CLR 13/10 A3007 RMK AO2 SLP175 T01280100
KUKI 020956Z AUTO 19006KT 10SM CLR 14/10 A3007 RMK AO2 SLP175 T01390100
KUKI 020856Z AUTO 15005KT 10SM CLR 15/10 A3007 RMK AO2 SLP173 T01500100 51008
KUKI 020756Z AUTO 18005KT 10SM CLR 16/10 A3006 RMK AO2 SLP172 T01610100 403560139
KUKI 020656Z AUTO 17007KT 10SM CLR 18/10 A3006 RMK AO2 SLP171 T01780100
KUKI 020556Z AUTO 18008KT 10SM CLR 19/10 A3004 RMK AO2 SLP166 T01890100 10350 20189 51018
KUKI 020456Z AUTO 16007KT 10SM CLR 22/08 A3003 RMK AO2 SLP162 T02170083
KUKI 020356Z AUTO 18010KT 10SM CLR 25/07 A3000 RMK AO2 SLP153 T02500067
KUKI 020256Z AUTO 16011G16KT 10SM CLR 28/08 A2999 RMK AO2 SLP147 T02780083 53010
KUKI 020156Z AUTO 16008KT 6SM HZ CLR 31/09 A2997 RMK AO2 SLP140 T03110094
KUKI 020056Z AUTO 22005KT 10SM CLR 33/10 A2997 RMK AO2 SLP139 T03330100
KUKI 012356Z AUTO 16010G17KT 10SM CLR 35/11 A2996 RMK AO2 SLP136 T03500106 10356 20250 55008
KUKI 012256Z AUTO 15012KT 10SM CLR 35/09 A2996 RMK AO2 SLP135 T03500094
KUKI 012156Z AUTO 15011G19KT 10SM CLR 34/10 A2996 RMK AO2 SLP138 T03440100
KUKI 012056Z AUTO 16010G17KT 10SM CLR 34/11 A2998 RMK AO2 SLP143 T03390106 58017